Time;durP1;ratioP1;P1;durP2;ratioP2;P2;SDS_P1;SDS_P2;PMS_P1;PMS_P2;Temp;Humidity;BMP_temperature;BMP_pressure;BME280_temperature;BME280_humidity;BME280_pressure;Samples;Min_cycle;Max_cycle;Signal;HPM_P1;HPM_P2
2023/11/23 00:01:13;;;;;;;10.23;5.43;;;;;;;14.45;47.26;102331.28;5094030;28;20032;-60
2023/11/23 00:03:39;;;;;;;9.43;4.20;;;;;;;14.42;47.85;102321.59;5058984;28;20112;-59
2023/11/23 00:06:04;;;;;;;8.88;4.90;;;;;;;14.44;47.98;102319.63;5075748;28;20097;-59
2023/11/23 00:08:30;;;;;;;15.13;5.15;;;;;;;14.46;48.03;102314.97;5075430;28;20114;-59
2023/11/23 00:10:57;;;;;;;10.80;4.72;;;;;;;14.45;46.79;102315.97;5093588;28;20024;-59
2023/11/23 00:13:22;;;;;;;10.88;5.15;;;;;;;14.44;47.32;102316.06;5075670;28;20602;-59
2023/11/23 00:15:48;;;;;;;12.07;5.35;;;;;;;14.41;47.83;102313.59;5092480;28;20127;-59
2023/11/23 00:18:13;;;;;;;11.68;5.18;;;;;;;14.42;47.82;102323.44;5080449;28;20123;-59
2023/11/23 00:20:39;;;;;;;10.05;5.43;;;;;;;14.42;48.45;102310.81;5073204;28;20106;-59
2023/11/23 00:23:04;;;;;;;15.43;5.97;;;;;;;14.38;47.76;102303.91;5055153;28;20036;-59
2023/11/23 00:25:30;;;;;;;12.07;5.45;;;;;;;14.40;48.96;102304.69;5055477;28;20055;-60
2023/11/23 00:27:55;;;;;;;8.32;4.90;;;;;;;14.39;48.33;102307.47;5073226;28;20595;-59
2023/11/23 00:30:21;;;;;;;13.93;5.53;;;;;;;14.39;48.43;102299.41;5073167;28;20025;-59
2023/11/23 00:32:47;;;;;;;11.05;5.22;;;;;;;14.38;48.61;102298.53;5073689;28;20071;-59
2023/11/23 00:35:12;;;;;;;13.80;5.25;;;;;;;14.36;48.76;102292.41;5054785;28;20032;-60
2023/11/23 00:37:38;;;;;;;12.73;5.50;;;;;;;14.39;49.18;102302.09;5074381;28;20042;-59
2023/11/23 00:40:05;;;;;;;11.30;4.75;;;;;;;14.37;49.14;102299.53;5074016;28;20119;-59
2023/11/23 00:42:30;;;;;;;17.33;5.40;;;;;;;14.39;49.48;102292.16;5074009;28;20040;-59
2023/11/23 00:44:56;;;;;;;13.57;5.53;;;;;;;14.30;48.23;102279.34;5074016;28;20052;-59
2023/11/23 00:47:22;;;;;;;13.93;5.57;;;;;;;14.40;48.28;102291.22;5040007;28;20021;-59
2023/11/23 00:49:47;;;;;;;10.35;4.93;;;;;;;14.41;47.92;102290.22;5039615;28;20039;-59
2023/11/23 00:52:13;;;;;;;16.05;6.18;;;;;;;14.40;48.56;102285.81;5056169;28;20443;-59
2023/11/23 00:54:39;;;;;;;11.73;6.18;;;;;;;14.42;48.63;102288.38;5056779;28;20056;-59
2023/11/23 00:57:08;;;;;;;15.57;6.22;;;;;;;14.41;48.56;102279.41;5057847;28;20479;-60
2023/11/23 00:59:33;;;;;;;13.52;5.93;;;;;;;14.43;48.11;102277.47;5076391;28;20058;-59
2023/11/23 01:02:02;;;;;;;16.77;5.20;;;;;;;14.42;49.23;102273.06;5076610;28;20504;-59
2023/11/23 01:04:28;;;;;;;11.20;4.85;;;;;;;14.42;48.99;102273.06;5077174;28;20553;-59
2023/11/23 01:06:54;;;;;;;13.25;5.68;;;;;;;14.42;49.14;102273.06;5074880;28;20032;-60
2023/11/23 01:09:20;;;;;;;9.40;6.13;;;;;;;14.43;48.48;102269.38;5092839;28;20399;-59
2023/11/23 01:11:45;;;;;;;10.05;5.88;;;;;;;14.44;49.49;102268.41;5075196;28;20089;-59
2023/11/23 01:14:11;;;;;;;12.73;5.40;;;;;;;14.47;49.30;102280.78;5057997;28;20114;-59
2023/11/23 01:16:36;;;;;;;12.57;5.88;;;;;;;14.50;50.21;102275.16;5074905;28;20406;-60
2023/11/23 01:19:01;;;;;;;15.45;5.20;;;;;;;14.49;48.56;102274.28;5074711;28;20444;-60
2023/11/23 01:21:27;;;;;;;14.65;5.15;;;;;;;14.51;49.86;102269.66;5074516;28;20032;-59
2023/11/23 01:23:52;;;;;;;11.07;5.28;;;;;;;14.55;48.96;102279.22;5074665;28;20028;-59
2023/11/23 01:26:18;;;;;;;14.80;5.50;;;;;;;14.56;48.65;102289.03;5074410;28;20137;-59
2023/11/23 01:28:43;;;;;;;10.40;5.00;;;;;;;14.56;48.65;102283.66;5074577;28;20109;-59
2023/11/23 01:31:09;;;;;;;8.93;4.70;;;;;;;14.56;49.14;102275.56;5092843;28;20128;-59
2023/11/23 01:33:34;;;;;;;10.60;4.88;;;;;;;14.58;50.46;102278.13;5092454;28;20021;-59
2023/11/23 01:36:00;;;;;;;12.90;5.70;;;;;;;14.61;48.97;102272.47;5092443;28;20483;-59
2023/11/23 01:38:26;;;;;;;10.82;5.70;;;;;;;14.65;49.54;102268.59;5073544;28;20559;-59
2023/11/23 01:40:54;;;;;;;9.73;5.20;;;;;;;14.66;48.65;102269.41;5074381;28;20503;-59
2023/11/23 01:43:19;;;;;;;10.20;5.35;;;;;;;14.69;48.79;102266.47;5092601;28;20039;-59
2023/11/23 01:45:45;;;;;;;10.40;4.30;;;;;;;14.70;50.07;102266.38;5092389;28;20036;-59
2023/11/23 01:48:11;;;;;;;14.77;5.63;;;;;;;14.72;49.69;102271.63;5059184;28;20399;-59
2023/11/23 01:50:38;;;;;;;11.15;5.03;;;;;;;14.71;50.12;102278.03;5096356;28;20024;-59
2023/11/23 01:53:03;;;;;;;12.07;4.75;;;;;;;14.74;49.23;102267.00;5076778;28;20028;-59
2023/11/23 01:55:29;;;;;;;13.80;5.07;;;;;;;14.74;49.70;102267.84;5077769;28;20036;-59
2023/11/23 01:57:56;;;;;;;12.77;5.22;;;;;;;14.76;49.28;102270.44;5078877;28;20039;-59
2023/11/23 02:00:24;;;;;;;11.02;4.70;;;;;;;14.78;50.29;102268.47;5079309;28;20054;-59
2023/11/23 02:02:53;;;;;;;8.55;4.45;;;;;;;14.78;50.26;102282.81;5098090;28;20100;-60
2023/11/23 02:05:21;;;;;;;13.93;5.30;;;;;;;14.80;49.06;102274.59;5082379;28;20178;-60
2023/11/23 02:07:46;;;;;;;10.07;5.25;;;;;;;14.80;50.45;102270.06;5081585;28;20032;-60
2023/11/23 02:10:12;;;;;;;10.90;5.78;;;;;;;14.83;50.00;102258.16;5079996;28;20031;-59
2023/11/23 02:12:37;;;;;;;8.32;4.65;;;;;;;14.84;48.98;102254.50;5096361;28;20119;-60
2023/11/23 02:15:04;;;;;;;11.93;5.03;;;;;;;14.88;49.40;102264.06;5077433;28;20032;-59
2023/11/23 02:17:30;;;;;;;11.80;4.75;;;;;;;14.90;48.94;102262.09;5077849;28;20431;-59
2023/11/23 02:19:56;;;;;;;10.50;5.15;;;;;;;14.91;49.05;102263.81;5076899;28;20042;-59
2023/11/23 02:22:22;;;;;;;10.57;4.85;;;;;;;14.88;49.31;102253.28;5095493;28;20035;-59
2023/11/23 02:24:47;;;;;;;13.52;5.00;;;;;;;14.92;48.86;102260.13;5077555;28;20033;-59
2023/11/23 02:27:13;;;;;;;10.43;4.38;;;;;;;14.92;50.37;102263.69;5094621;28;20036;-59
2023/11/23 02:29:39;;;;;;;11.43;5.78;;;;;;;14.94;49.01;102263.56;5077427;28;20066;-59
2023/11/23 02:32:09;;;;;;;11.00;4.82;;;;;;;14.92;50.03;102250.22;5077557;28;20069;-59
2023/11/23 02:34:36;;;;;;;8.52;5.03;;;;;;;14.95;49.09;102257.19;5077387;28;20032;-60
2023/11/23 02:37:02;;;;;;;11.48;5.05;;;;;;;14.96;49.27;102245.44;5095494;28;20036;-60
2023/11/23 02:39:28;;;;;;;14.57;5.53;;;;;;;14.96;49.46;102251.66;5077236;28;20028;-59
2023/11/23 02:41:54;;;;;;;15.63;5.50;;;;;;;14.96;50.20;102250.84;5095280;28;20381;-59
2023/11/23 02:44:19;;;;;;;10.85;5.93;;;;;;;14.98;50.36;102259.66;5095306;28;20028;-59
2023/11/23 02:46:45;;;;;;;11.27;5.57;;;;;;;15.00;49.33;102255.84;5095495;28;20040;-60
2023/11/23 02:49:10;;;;;;;9.45;5.90;;;;;;;15.02;49.38;102253.00;5077080;28;20024;-59
2023/11/23 02:51:35;;;;;;;13.40;5.13;;;;;;;15.03;50.07;102252.91;5060444;28;20039;-59
2023/11/23 02:54:01;;;;;;;14.07;5.50;;;;;;;15.06;50.10;102249.97;5094623;28;20059;-60
2023/11/23 02:56:26;;;;;;;12.63;6.18;;;;;;;15.05;49.25;102247.38;5094979;28;20036;-59
2023/11/23 02:58:53;;;;;;;11.98;5.50;;;;;;;15.05;50.75;102252.78;5076659;28;20491;-59
2023/11/23 03:01:19;;;;;;;12.38;5.88;;;;;;;15.06;49.94;102249.09;5095070;28;20036;-59
2023/11/23 03:03:44;;;;;;;14.63;5.82;;;;;;;15.06;49.39;102241.00;5076907;28;20038;-59
2023/11/23 03:06:10;;;;;;;12.07;5.82;;;;;;;15.09;50.80;102243.47;5095244;28;20120;-59
2023/11/23 03:08:35;;;;;;;12.27;5.90;;;;;;;15.08;50.73;102239.03;5095201;28;20118;-59
2023/11/23 03:11:00;;;;;;;12.52;5.97;;;;;;;15.05;50.24;102223.09;5060410;28;20030;-59
2023/11/23 03:13:27;;;;;;;12.10;6.20;;;;;;;15.04;50.82;102227.66;5076916;28;20445;-59
2023/11/23 03:15:53;;;;;;;9.38;5.75;;;;;;;15.06;50.22;102227.50;5095038;28;20032;-59
2023/11/23 03:18:18;;;;;;;12.30;5.85;;;;;;;15.06;51.19;102224.81;5059845;28;20081;-60
2023/11/23 03:20:43;;;;;;;17.15;7.25;;;;;;;15.06;49.68;102225.69;5076259;28;20405;-59
2023/11/23 03:23:09;;;;;;;20.98;8.45;;;;;;;15.08;50.53;102233.63;5076458;28;20055;-59
2023/11/23 03:25:34;;;;;;;16.27;6.22;;;;;;;15.06;50.85;102230.22;5076405;28;20067;-60
2023/11/23 03:27:59;;;;;;;12.35;6.80;;;;;;;15.10;50.05;102231.69;5094062;28;20036;-59
2023/11/23 03:30:25;;;;;;;16.50;7.43;;;;;;;15.14;49.97;102233.13;5059524;28;20032;-59
2023/11/23 03:32:50;;;;;;;13.80;6.75;;;;;;;15.14;51.54;102225.91;5059615;28;20510;-59
2023/11/23 03:35:16;;;;;;;13.05;6.57;;;;;;;15.16;51.68;102226.63;5094360;28;20452;-59
2023/11/23 03:37:42;;;;;;;12.55;6.90;;;;;;;15.17;50.66;102222.09;5076078;28;20036;-60
2023/11/23 03:40:08;;;;;;;12.30;6.43;;;;;;;15.20;50.92;102221.84;5094190;28;20028;-60
2023/11/23 03:42:33;;;;;;;17.45;8.00;;;;;;;15.19;50.53;102217.44;5094030;28;20044;-60
2023/11/23 03:44:59;;;;;;;14.95;6.65;;;;;;;15.22;51.41;102214.47;5094071;28;20062;-60
2023/11/23 03:47:24;;;;;;;12.90;6.60;;;;;;;15.23;51.77;102216.22;5059379;28;20032;-59
2023/11/23 03:49:51;;;;;;;22.30;7.55;;;;;;;15.21;51.20;102212.78;5075963;28;20039;-60
2023/11/23 03:52:17;;;;;;;14.77;7.65;;;;;;;15.24;51.55;102214.38;5075989;28;20521;-59
2023/11/23 03:54:42;;;;;;;15.35;7.80;;;;;;;15.24;50.50;102201.75;5093723;28;20096;-59
2023/11/23 03:57:08;;;;;;;18.33;8.23;;;;;;;15.25;51.39;102203.44;5075874;28;20134;-59
2023/11/23 03:59:33;;;;;;;15.65;7.80;;;;;;;15.26;51.31;102202.47;5093890;28;20029;-59
2023/11/23 04:01:58;;;;;;;14.35;6.93;;;;;;;15.26;51.14;102197.06;5094093;28;20047;-59
2023/11/23 04:04:24;;;;;;;14.68;6.95;;;;;;;15.29;51.69;102191.41;5075772;28;20522;-59
2023/11/23 04:06:49;;;;;;;16.05;7.63;;;;;;;15.28;51.45;102184.28;5058942;28;20508;-60
2023/11/23 04:09:17;;;;;;;17.50;6.63;;;;;;;15.28;51.39;102186.97;5075653;28;20032;-59
2023/11/23 04:11:43;;;;;;;14.88;7.30;;;;;;;15.30;51.96;102185.00;5075315;28;20584;-59
2023/11/23 04:14:09;;;;;;;19.05;6.93;;;;;;;15.29;51.64;102187.84;5093281;28;20499;-60
2023/11/23 04:16:36;;;;;;;15.38;7.93;;;;;;;15.31;51.33;102192.13;5075384;28;20028;-59
2023/11/23 04:19:01;;;;;;;18.40;7.93;;;;;;;15.33;51.96;102192.84;5075600;28;20020;-60
2023/11/23 04:21:27;;;;;;;19.98;8.13;;;;;;;15.33;51.11;102178.50;5093463;28;20059;-59
2023/11/23 04:23:52;;;;;;;16.45;7.82;;;;;;;15.32;50.77;102166.00;5093310;28;20095;-60
2023/11/23 04:26:17;;;;;;;13.98;7.15;;;;;;;15.29;51.13;102172.50;5075432;28;20032;-59
2023/11/23 04:28:43;;;;;;;17.65;7.90;;;;;;;15.32;51.64;102174.97;5093316;28;20059;-59
2023/11/23 04:31:08;;;;;;;17.17;7.97;;;;;;;15.33;52.05;102183.91;5093326;28;20036;-59
2023/11/23 04:33:33;;;;;;;15.07;7.57;;;;;;;15.31;51.08;102175.94;5075265;28;20107;-59
2023/11/23 04:35:58;;;;;;;17.50;8.00;;;;;;;15.33;50.72;102173.97;5058529;28;20063;-59
2023/11/23 04:38:24;;;;;;;15.38;8.50;;;;;;;15.36;52.36;102179.09;5075020;28;20115;-59
2023/11/23 04:40:50;;;;;;;16.48;7.93;;;;;;;15.35;51.89;102177.41;5075107;28;20060;-60
2023/11/23 04:43:15;;;;;;;17.67;8.05;;;;;;;15.36;50.93;102175.53;5093280;28;20115;-60
2023/11/23 04:45:41;;;;;;;18.88;8.55;;;;;;;15.32;51.21;102182.19;5075046;28;20521;-59
2023/11/23 04:48:06;;;;;;;17.88;8.90;;;;;;;15.35;51.35;102180.13;5092733;28;20036;-59
2023/11/23 04:50:33;;;;;;;15.27;7.88;;;;;;;15.35;51.11;102193.63;5074733;28;20111;-59
2023/11/23 04:52:58;;;;;;;17.92;9.25;;;;;;;15.34;52.37;102181.09;5074629;28;20434;-59
2023/11/23 04:55:23;;;;;;;17.38;8.32;;;;;;;15.35;52.23;102169.31;5075026;28;20081;-60
2023/11/23 04:57:49;;;;;;;16.35;8.52;;;;;;;15.35;52.41;102166.63;5092928;28;20032;-59
2023/11/23 05:00:14;;;;;;;18.98;8.45;;;;;;;15.37;51.71;102175.44;5074873;28;20024;-59
2023/11/23 05:02:42;;;;;;;18.17;8.50;;;;;;;15.35;52.28;102177.41;5074811;28;20118;-60
2023/11/23 05:05:11;;;;;;;19.60;7.68;;;;;;;15.43;52.48;102184.88;5092774;28;20028;-59
2023/11/23 05:07:38;;;;;;;21.75;8.90;;;;;;;15.47;52.33;102180.94;5058938;28;20123;-59
2023/11/23 05:10:06;;;;;;;14.05;7.57;;;;;;;15.46;51.41;102182.81;5092502;28;20415;-59
2023/11/23 05:12:31;;;;;;;16.40;7.75;;;;;;;15.49;52.62;102190.66;5057749;28;20032;-60
2023/11/23 05:14:56;;;;;;;17.10;8.55;;;;;;;15.48;51.17;102182.66;5073534;28;20027;-59
2023/11/23 05:17:22;;;;;;;15.90;8.05;;;;;;;15.48;52.22;102178.13;5074867;28;20016;-60
2023/11/23 05:19:48;;;;;;;16.65;7.93;;;;;;;15.46;52.72;102174.72;5092734;28;20012;-59
2023/11/23 05:22:13;;;;;;;14.70;8.68;;;;;;;15.51;52.40;102177.88;5094129;28;20032;-59
2023/11/23 05:24:39;;;;;;;16.65;7.10;;;;;;;15.54;52.26;102180.31;5096840;28;20028;-59
2023/11/23 05:27:06;;;;;;;20.05;9.25;;;;;;;15.56;51.72;102180.19;5096722;28;20020;-59
2023/11/23 05:29:31;;;;;;;15.73;7.32;;;;;;;15.57;52.38;102181.91;5061970;28;20055;-59
2023/11/23 05:31:57;;;;;;;19.05;9.25;;;;;;;15.59;51.64;102186.19;5061937;28;20039;-59
2023/11/23 05:34:22;;;;;;;18.15;8.10;;;;;;;15.61;51.59;102195.03;5079063;28;20024;-59
2023/11/23 05:36:47;;;;;;;17.80;8.27;;;;;;;15.63;51.95;102203.84;5078540;28;20080;-60
2023/11/23 05:39:13;;;;;;;16.85;8.07;;;;;;;15.63;51.31;102193.03;5096581;28;20069;-60
2023/11/23 05:41:38;;;;;;;20.25;7.18;;;;;;;15.64;52.26;102186.66;5096427;28;20082;-60
2023/11/23 05:44:04;;;;;;;20.60;7.95;;;;;;;15.67;51.46;102185.53;5061351;28;20154;-60
2023/11/23 05:46:30;;;;;;;23.13;8.07;;;;;;;15.68;52.08;102188.13;5078339;28;20103;-59
2023/11/23 05:48:56;;;;;;;13.02;7.35;;;;;;;15.70;52.00;102188.00;5096713;28;20077;-60
2023/11/23 05:51:22;;;;;;;15.98;8.05;;;;;;;15.69;52.72;102189.84;5078031;28;20040;-59
2023/11/23 05:53:48;;;;;;;17.63;8.55;;;;;;;15.71;52.23;102192.41;5096128;28;20040;-59
2023/11/23 05:56:14;;;;;;;16.40;8.48;;;;;;;15.73;52.30;102194.00;5096252;28;20028;-59
2023/11/23 05:58:39;;;;;;;18.15;8.35;;;;;;;15.73;52.31;102199.41;5076879;28;20411;-59
2023/11/23 06:01:06;;;;;;;14.57;7.38;;;;;;;15.74;53.04;102190.28;5061187;28;20472;-59
2023/11/23 06:03:31;;;;;;;13.32;7.20;;;;;;;15.73;51.73;102188.59;5096049;28;20032;-59
2023/11/23 06:05:57;;;;;;;18.20;8.00;;;;;;;15.79;51.93;102194.47;5077831;28;20024;-59
2023/11/23 06:08:22;;;;;;;17.63;8.07;;;;;;;15.80;52.42;102196.19;5095708;28;20019;-60
2023/11/23 06:10:47;;;;;;;17.05;8.40;;;;;;;15.79;53.08;102189.06;5077395;28;20020;-60
2023/11/23 06:13:13;;;;;;;12.73;7.07;;;;;;;15.77;51.88;102182.94;5077615;28;20085;-59
2023/11/23 06:15:38;;;;;;;17.83;8.23;;;;;;;15.77;52.92;102186.50;5077637;28;20388;-60
2023/11/23 06:18:04;;;;;;;19.17;9.00;;;;;;;15.77;52.96;102191.03;5077702;28;20032;-60
2023/11/23 06:20:30;;;;;;;16.15;8.07;;;;;;;15.76;52.19;102186.63;5095714;28;20423;-59
2023/11/23 06:22:55;;;;;;;14.35;8.43;;;;;;;15.77;52.33;102182.94;5060842;28;20040;-59
2023/11/23 06:25:21;;;;;;;12.02;7.10;;;;;;;15.74;51.89;102190.28;5077690;28;20039;-59
2023/11/23 06:27:47;;;;;;;20.75;8.38;;;;;;;15.79;52.07;102187.22;5095799;28;20028;-60
2023/11/23 06:30:13;;;;;;;12.88;6.85;;;;;;;15.79;52.04;102178.25;5095710;28;20032;-60
2023/11/23 06:32:38;;;;;;;14.82;7.80;;;;;;;15.83;51.94;102182.44;5060603;28;20059;-59
2023/11/23 06:35:04;;;;;;;18.60;8.45;;;;;;;15.80;52.99;102180.81;5094828;28;20107;-60
2023/11/23 06:37:29;;;;;;;14.82;7.28;;;;;;;15.83;52.36;102188.66;5076345;28;20111;-59
2023/11/23 06:39:55;;;;;;;16.77;8.52;;;;;;;15.85;52.94;102180.44;5089629;28;20020;-59
2023/11/23 06:42:21;;;;;;;14.05;7.70;;;;;;;15.84;51.99;102178.72;5077865;28;20032;-61
2023/11/23 06:44:47;;;;;;;16.15;8.32;;;;;;;15.87;51.95;102173.06;5077864;28;20029;-59
2023/11/23 06:47:12;;;;;;;13.63;7.63;;;;;;;15.89;51.64;102177.34;5058264;28;20107;-58
2023/11/23 06:49:40;;;;;;;17.10;8.10;;;;;;;15.90;53.10;102168.25;5075400;28;20434;-58
2023/11/23 06:52:06;;;;;;;17.55;9.23;;;;;;;15.89;52.84;102165.66;5057205;28;20029;-58
2023/11/23 06:54:32;;;;;;;17.02;8.23;;;;;;;15.90;53.00;102162.84;5083274;28;20030;-58
2023/11/23 06:56:57;;;;;;;17.65;8.25;;;;;;;15.94;52.14;102160.75;5074862;28;20032;-58
2023/11/23 06:59:23;;;;;;;19.02;8.02;;;;;;;15.96;52.26;102161.47;5057263;28;20024;-58
2023/11/23 07:01:48;;;;;;;13.73;8.02;;;;;;;15.96;51.91;102148.81;5075581;28;20040;-58
2023/11/23 07:04:13;;;;;;;16.58;8.70;;;;;;;15.98;53.22;102143.28;5040313;28;20048;-58
2023/11/23 07:06:39;;;;;;;15.38;8.32;;;;;;;15.98;53.22;102137.88;5057083;28;20044;-58
2023/11/23 07:09:06;;;;;;;17.67;8.60;;;;;;;16.00;52.23;102143.97;5074843;28;20116;-57
2023/11/23 07:11:31;;;;;;;13.93;8.35;;;;;;;16.00;52.69;102141.28;5040701;28;20036;-58
2023/11/23 07:13:56;;;;;;;18.00;8.25;;;;;;;15.99;52.60;102134.19;5057394;28;20476;-57
2023/11/23 07:16:22;;;;;;;12.93;7.47;;;;;;;16.07;53.58;102145.19;5057162;28;20033;-58
2023/11/23 07:18:47;;;;;;;14.05;8.15;;;;;;;16.03;53.53;102147.28;5074731;28;20039;-58
2023/11/23 07:21:14;;;;;;;18.30;8.32;;;;;;;16.09;52.90;102144.06;5056341;28;20036;-58
2023/11/23 07:23:40;;;;;;;18.55;8.85;;;;;;;16.12;52.80;102134.81;5074518;28;20471;-57
2023/11/23 07:26:06;;;;;;;18.85;8.85;;;;;;;16.15;52.88;102134.56;5074713;28;20024;-57
2023/11/23 07:28:32;;;;;;;17.70;7.80;;;;;;;16.18;52.68;102145.13;5057022;28;20515;-57
2023/11/23 07:30:57;;;;;;;20.45;7.93;;;;;;;16.19;53.14;102144.13;5040597;28;20041;-58
2023/11/23 07:33:29;;;;;;;20.02;8.02;;;;;;;16.21;52.29;102137.59;5057015;28;20028;-58
2023/11/23 07:35:55;;;;;;;17.65;7.53;;;;;;;16.24;52.24;102140.03;5057558;28;20032;-58
2023/11/23 07:38:20;;;;;;;18.05;7.40;;;;;;;16.24;53.40;102139.19;5058111;28;20024;-58
2023/11/23 07:40:46;;;;;;;18.13;8.18;;;;;;;16.22;52.76;102142.00;5094808;28;20085;-57
2023/11/23 07:43:11;;;;;;;13.48;7.07;;;;;;;16.26;52.80;102142.59;5077078;28;20044;-57
2023/11/23 07:45:39;;;;;;;13.85;7.40;;;;;;;16.29;51.84;102142.34;5093921;28;20024;-57
2023/11/23 07:48:08;;;;;;;14.45;7.43;;;;;;;16.30;52.57;102150.28;5095056;28;20484;-58
2023/11/23 07:50:36;;;;;;;15.30;8.63;;;;;;;16.31;52.35;102145.75;5094909;28;20036;-57
2023/11/23 07:53:02;;;;;;;17.75;7.38;;;;;;;16.33;52.33;102146.50;5074207;28;20056;-58
2023/11/23 07:55:27;;;;;;;16.90;7.25;;;;;;;16.35;53.13;102147.22;5094276;28;20055;-58
2023/11/23 07:57:53;;;;;;;15.10;6.90;;;;;;;16.35;52.02;102147.22;5075900;28;20036;-57
2023/11/23 08:00:19;;;;;;;13.60;7.05;;;;;;;16.39;52.77;102145.94;5094085;28;20074;-58
2023/11/23 08:02:45;;;;;;;15.52;7.60;;;;;;;16.41;52.49;102141.28;5075653;28;20038;-58
2023/11/23 08:05:10;;;;;;;15.77;7.40;;;;;;;16.45;52.88;102144.53;5075908;28;20028;-58
2023/11/23 08:07:36;;;;;;;19.08;7.72;;;;;;;16.47;53.03;102129.88;5075656;28;20491;-58
2023/11/23 08:10:05;;;;;;;16.20;7.03;;;;;;;16.45;52.96;102131.88;5075370;28;20119;-58
2023/11/23 08:12:32;;;;;;;14.52;7.13;;;;;;;16.47;53.24;102124.47;5093858;28;20051;-58
2023/11/23 08:14:57;;;;;;;15.80;7.70;;;;;;;16.49;52.65;102133.34;5093711;28;20032;-58
2023/11/23 08:17:23;;;;;;;17.33;7.97;;;;;;;16.52;53.09;102122.25;5093550;28;20032;-57
2023/11/23 08:19:48;;;;;;;15.13;7.07;;;;;;;16.54;52.47;102117.56;5093480;28;20024;-57
2023/11/23 08:22:16;;;;;;;16.95;6.65;;;;;;;16.57;52.36;102114.59;5075209;28;20381;-58
2023/11/23 08:24:41;;;;;;;12.25;6.15;;;;;;;16.60;52.39;102117.03;5075501;28;20062;-58
2023/11/23 08:27:07;;;;;;;11.45;6.22;;;;;;;16.62;52.78;102115.03;5093510;28;20055;-57
2023/11/23 08:29:32;;;;;;;12.98;6.72;;;;;;;16.65;52.44;102114.78;5075193;28;20028;-58
2023/11/23 08:31:58;;;;;;;10.43;6.15;;;;;;;16.67;53.02;102115.47;5093295;28;20035;-57
2023/11/23 08:34:24;;;;;;;16.95;7.32;;;;;;;16.69;52.07;102108.09;5093465;28;20051;-58
2023/11/23 08:36:49;;;;;;;13.57;6.75;;;;;;;16.72;52.51;102113.22;5075202;28;20119;-57
2023/11/23 08:39:15;;;;;;;11.40;6.55;;;;;;;16.73;52.72;102098.69;5093137;28;20024;-58
2023/11/23 08:41:41;;;;;;;16.17;7.25;;;;;;;16.80;53.13;102110.72;5093141;28;20067;-57
2023/11/23 08:44:06;;;;;;;14.02;5.78;;;;;;;16.82;52.34;102097.03;5075152;28;20173;-58
2023/11/23 08:46:33;;;;;;;14.82;7.40;;;;;;;16.84;52.75;102108.56;5093088;28;20067;-58
2023/11/23 08:48:59;;;;;;;14.02;5.78;;;;;;;16.89;51.69;102109.00;5093236;28;20033;-58
2023/11/23 08:51:25;;;;;;;13.77;6.47;;;;;;;16.88;52.32;102110.88;5075046;28;20099;-58
2023/11/23 08:53:50;;;;;;;13.80;6.60;;;;;;;16.89;52.75;102109.84;5075048;28;20048;-58
2023/11/23 08:56:15;;;;;;;13.75;5.88;;;;;;;16.89;52.66;102115.25;5075118;28;20040;-58
2023/11/23 08:58:41;;;;;;;13.52;5.50;;;;;;;16.91;53.28;102117.00;5092893;28;20032;-58
2023/11/23 09:01:06;;;;;;;13.38;5.38;;;;;;;16.90;51.88;102105.31;5074717;28;20029;-58
2023/11/23 09:03:32;;;;;;;15.27;5.90;;;;;;;16.92;52.24;102100.59;5058301;28;20036;-58
2023/11/23 09:05:58;;;;;;;12.38;5.53;;;;;;;16.97;52.71;102097.50;5093103;28;20040;-58
2023/11/23 09:08:23;;;;;;;15.15;5.30;;;;;;;17.01;52.43;102099.75;5058105;28;20024;-58
2023/11/23 09:10:48;;;;;;;9.80;4.82;;;;;;;17.08;52.46;102100.94;5074974;28;20078;-58
2023/11/23 09:13:15;;;;;;;9.43;5.07;;;;;;;17.11;52.71;102094.38;5075160;28;20035;-58
2023/11/23 09:15:41;;;;;;;10.05;4.85;;;;;;;17.18;52.58;102098.22;5075213;28;20042;-58
2023/11/23 09:18:06;;;;;;;8.68;5.00;;;;;;;17.21;52.06;102097.94;5075052;28;20044;-58
2023/11/23 09:20:32;;;;;;;9.18;5.28;;;;;;;17.29;52.36;102076.41;5074938;28;20063;-58
2023/11/23 09:23:02;;;;;;;10.95;5.00;;;;;;;17.30;52.03;102080.84;5092977;28;20056;-57
2023/11/23 09:25:29;;;;;;;11.48;5.43;;;;;;;17.30;52.50;102086.28;5092802;28;20119;-58
2023/11/23 09:27:55;;;;;;;13.18;4.95;;;;;;;17.33;51.73;102083.28;5075137;28;20038;-58
2023/11/23 09:30:20;;;;;;;9.52;4.72;;;;;;;17.33;52.63;102070.59;5058285;28;20033;-58
2023/11/23 09:32:46;;;;;;;11.20;4.90;;;;;;;17.33;52.24;102065.19;5093038;28;20074;-58
2023/11/23 09:35:11;;;;;;;11.27;4.65;;;;;;;17.34;51.76;102045.19;5074691;28;20032;-58
2023/11/23 09:37:37;;;;;;;9.95;4.85;;;;;;;17.34;52.48;102053.31;5075003;28;20032;-58
2023/11/23 09:40:07;;;;;;;9.98;4.85;;;;;;;17.40;52.32;102063.59;5074343;28;20510;-58
2023/11/23 09:42:35;;;;;;;9.18;5.28;;;;;;;17.47;51.94;102062.00;5091905;28;20036;-58
2023/11/23 09:45:02;;;;;;;9.60;5.10;;;;;;;17.55;52.08;102079.44;5054852;28;20036;-58
2023/11/23 09:47:31;;;;;;;7.50;4.50;;;;;;;17.55;51.96;102077.59;5054534;28;20028;-58
2023/11/23 09:49:59;;;;;;;10.90;4.47;;;;;;;17.57;52.40;102089.16;5054892;28;20484;-58
2023/11/23 09:52:27;;;;;;;8.10;4.88;;;;;;;17.64;52.30;102093.00;5042268;28;20442;-58
2023/11/23 09:54:56;;;;;;;12.35;4.47;;;;;;;17.67;52.21;102092.69;5092758;28;20036;-58
2023/11/23 09:57:22;;;;;;;8.77;3.72;;;;;;;17.68;52.53;102070.03;5071955;28;20459;-57
2023/11/23 09:59:48;;;;;;;13.27;4.72;;;;;;;17.75;52.55;102073.88;5086446;28;20033;-58
2023/11/23 10:02:13;;;;;;;7.97;3.85;;;;;;;17.78;51.92;102076.28;5092627;28;20032;-58
2023/11/23 10:04:39;;;;;;;9.10;4.32;;;;;;;17.83;52.21;102090.28;5074595;28;20036;-58
2023/11/23 10:07:06;;;;;;;12.68;4.18;;;;;;;17.89;52.25;102081.56;5092537;28;20029;-58
2023/11/23 10:09:35;;;;;;;7.50;4.22;;;;;;;17.93;51.80;102084.81;5083881;28;20514;-58
2023/11/23 10:12:02;;;;;;;7.75;4.75;;;;;;;17.94;51.84;102073.84;5058010;28;20492;-58
2023/11/23 10:14:28;;;;;;;10.45;3.95;;;;;;;17.96;51.98;102060.97;5057640;28;20025;-58
2023/11/23 10:16:54;;;;;;;7.10;4.45;;;;;;;17.98;52.27;102045.41;5057840;28;20442;-57
2023/11/23 10:19:22;;;;;;;9.23;4.43;;;;;;;18.01;52.07;102039.69;5075521;28;20028;-58
2023/11/23 10:21:48;;;;;;;6.20;3.55;;;;;;;18.03;52.19;102040.38;5057545;28;20036;-58
2023/11/23 10:24:16;;;;;;;9.05;3.47;;;;;;;18.01;51.35;102028.84;5057616;28;20139;-58
2023/11/23 10:26:42;;;;;;;6.00;3.50;;;;;;;18.02;51.80;102024.28;5041383;28;20499;-58
2023/11/23 10:29:09;;;;;;;6.55;3.97;;;;;;;18.02;51.98;102013.44;5057486;28;20054;-58
2023/11/23 10:31:35;;;;;;;8.38;3.78;;;;;;;18.01;52.17;102007.16;5066262;28;20016;-58
2023/11/23 10:34:02;;;;;;;4.70;2.83;;;;;;;18.02;51.98;102014.31;5075220;28;20438;-57
2023/11/23 10:36:28;;;;;;;10.68;3.72;;;;;;;18.02;51.82;102016.16;5057291;28;20028;-58
2023/11/23 10:38:59;;;;;;;4.25;3.00;;;;;;;18.02;52.22;102013.44;5056984;28;20032;-58
2023/11/23 10:41:25;;;;;;;11.57;3.80;;;;;;;18.05;51.58;102010.44;5057183;28;20399;-58
2023/11/23 10:43:50;;;;;;;4.28;3.35;;;;;;;18.07;52.15;102018.41;5075131;28;20021;-58
2023/11/23 10:46:18;;;;;;;7.57;3.30;;;;;;;18.08;52.02;102012.00;5057443;28;20024;-58
2023/11/23 10:48:45;;;;;;;8.60;3.38;;;;;;;18.10;52.32;102009.97;5092489;28;20047;-58
2023/11/23 10:51:11;;;;;;;8.02;3.13;;;;;;;18.11;52.29;102007.13;5077425;28;20442;-58
2023/11/23 10:53:39;;;;;;;10.18;3.45;;;;;;;18.14;52.25;102006.84;5095089;28;20105;-58
2023/11/23 10:56:07;;;;;;;5.57;3.08;;;;;;;18.17;51.73;101989.41;5077122;28;20029;-58
2023/11/23 10:58:37;;;;;;;9.32;3.45;;;;;;;18.21;51.94;101969.09;5076981;28;20020;-58
2023/11/23 11:01:07;;;;;;;5.30;2.83;;;;;;;18.26;51.33;101964.94;5077323;28;20028;-58
2023/11/23 11:03:34;;;;;;;7.35;2.80;;;;;;;18.30;50.92;101968.19;5093820;28;20063;-58
2023/11/23 11:05:59;;;;;;;6.38;2.90;;;;;;;18.32;51.75;101967.03;5077417;28;20032;-58
2023/11/23 11:08:27;;;;;;;9.50;3.10;;;;;;;18.33;51.42;101959.75;5077002;28;20029;-58
2023/11/23 11:10:53;;;;;;;6.72;2.70;;;;;;;18.35;51.01;101944.19;5094814;28;20039;-58
2023/11/23 11:13:24;;;;;;;6.47;3.10;;;;;;;18.34;51.68;101942.50;5077412;28;20151;-58